sensor_id;sensor_type;location;lat;lon;timestamp;temperature;humidity
70166;SHT30;57541;47.408;18.822;2022-11-15T00:00:14;4.99;99.38
70166;SHT30;57541;47.408;18.822;2022-11-15T00:00:45;4.98;99.18
70166;SHT30;57541;47.408;18.822;2022-11-15T00:01:18;4.96;99.32
70166;SHT30;57541;47.408;18.822;2022-11-15T00:01:49;4.88;99.16
70166;SHT30;57541;47.408;18.822;2022-11-15T00:02:21;4.91;99.33
70166;SHT30;57541;47.408;18.822;2022-11-15T00:02:53;4.92;99.02
70166;SHT30;57541;47.408;18.822;2022-11-15T00:03:26;4.92;99.44
70166;SHT30;57541;47.408;18.822;2022-11-15T00:03:58;4.96;99.21
70166;SHT30;57541;47.408;18.822;2022-11-15T00:04:30;4.93;99.17
70166;SHT30;57541;47.408;18.822;2022-11-15T00:05:01;4.92;99.43
70166;SHT30;57541;47.408;18.822;2022-11-15T00:05:36;4.96;99.38
70166;SHT30;57541;47.408;18.822;2022-11-15T00:06:08;4.92;99.37
70166;SHT30;57541;47.408;18.822;2022-11-15T00:06:40;4.91;99.53
70166;SHT30;57541;47.408;18.822;2022-11-15T00:07:11;4.85;99.35
70166;SHT30;57541;47.408;18.822;2022-11-15T00:08:03;4.84;99.42
70166;SHT30;57541;47.408;18.822;2022-11-15T00:08:35;4.88;99.54
70166;SHT30;57541;47.408;18.822;2022-11-15T00:09:06;4.92;99.73
70166;SHT30;57541;47.408;18.822;2022-11-15T00:09:38;4.93;99.56
70166;SHT30;57541;47.408;18.822;2022-11-15T00:10:16;4.84;99.19
70166;SHT30;57541;47.408;18.822;2022-11-15T00:10:58;4.91;99.57
70166;SHT30;57541;47.408;18.822;2022-11-15T00:11:29;5.05;99.53
70166;SHT30;57541;47.408;18.822;2022-11-15T00:12:01;5.09;99.59
70166;SHT30;57541;47.408;18.822;2022-11-15T00:12:33;5.02;98.92
70166;SHT30;57541;47.408;18.822;2022-11-15T00:13:12;5.05;99.14
70166;SHT30;57541;47.408;18.822;2022-11-15T00:13:44;4.99;99.28
70166;SHT30;57541;47.408;18.822;2022-11-15T00:14:15;4.98;99.06
70166;SHT30;57541;47.408;18.822;2022-11-15T00:14:47;4.99;99.23
70166;SHT30;57541;47.408;18.822;2022-11-15T00:15:18;4.91;99.10
70166;SHT30;57541;47.408;18.822;2022-11-15T00:15:50;4.88;99.24
70166;SHT30;57541;47.408;18.822;2022-11-15T00:16:22;4.98;99.42
70166;SHT30;57541;47.408;18.822;2022-11-15T00:16:54;5.05;99.50
70166;SHT30;57541;47.408;18.822;2022-11-15T00:17:25;5.07;99.23
70166;SHT30;57541;47.408;18.822;2022-11-15T00:17:57;5.15;99.05
70166;SHT30;57541;47.408;18.822;2022-11-15T00:18:29;5.08;98.91
70166;SHT30;57541;47.408;18.822;2022-11-15T00:19:02;5.16;99.07
70166;SHT30;57541;47.408;18.822;2022-11-15T00:19:33;5.13;98.84
70166;SHT30;57541;47.408;18.822;2022-11-15T00:20:06;5.12;98.66
70166;SHT30;57541;47.408;18.822;2022-11-15T00:20:38;5.08;98.81
70166;SHT30;57541;47.408;18.822;2022-11-15T00:21:11;5.09;98.63
70166;SHT30;57541;47.408;18.822;2022-11-15T00:21:43;5.11;98.91
70166;SHT30;57541;47.408;18.822;2022-11-15T00:22:14;5.11;98.83
70166;SHT30;57541;47.408;18.822;2022-11-15T00:22:46;5.15;98.74
70166;SHT30;57541;47.408;18.822;2022-11-15T00:23:17;5.13;98.71
70166;SHT30;57541;47.408;18.822;2022-11-15T00:23:49;5.15;98.83
70166;SHT30;57541;47.408;18.822;2022-11-15T00:24:21;5.12;98.59
70166;SHT30;57541;47.408;18.822;2022-11-15T00:24:52;5.11;98.39
70166;SHT30;57541;47.408;18.822;2022-11-15T00:25:24;5.07;98.25
70166;SHT30;57541;47.408;18.822;2022-11-15T00:25:59;4.99;98.40
70166;SHT30;57541;47.408;18.822;2022-11-15T00:26:30;4.95;98.48
70166;SHT30;57541;47.408;18.822;2022-11-15T00:27:02;4.96;98.63
70166;SHT30;57541;47.408;18.822;2022-11-15T00:27:38;4.99;98.77
70166;SHT30;57541;47.408;18.822;2022-11-15T00:28:09;4.96;99.01
70166;SHT30;57541;47.408;18.822;2022-11-15T00:28:42;5.05;99.14
70166;SHT30;57541;47.408;18.822;2022-11-15T00:29:13;4.99;98.66
70166;SHT30;57541;47.408;18.822;2022-11-15T00:29:45;5.01;98.73
70166;SHT30;57541;47.408;18.822;2022-11-15T00:30:16;4.96;98.88
70166;SHT30;57541;47.408;18.822;2022-11-15T00:30:48;5.02;98.83
70166;SHT30;57541;47.408;18.822;2022-11-15T00:31:20;5.02;99.23
70166;SHT30;57541;47.408;18.822;2022-11-15T00:31:52;5.07;98.98
70166;SHT30;57541;47.408;18.822;2022-11-15T00:32:23;5.16;98.82
70166;SHT30;57541;47.408;18.822;2022-11-15T00:32:55;5.22;98.65
70166;SHT30;57541;47.408;18.822;2022-11-15T00:33:27;5.23;98.43
70166;SHT30;57541;47.408;18.822;2022-11-15T00:33:59;5.23;98.30
70166;SHT30;57541;47.408;18.822;2022-11-15T00:34:30;5.26;98.55
70166;SHT30;57541;47.408;18.822;2022-11-15T00:35:02;5.23;98.49
70166;SHT30;57541;47.408;18.822;2022-11-15T00:35:34;5.15;98.40
70166;SHT30;57541;47.408;18.822;2022-11-15T00:36:07;5.22;98.58
70166;SHT30;57541;47.408;18.822;2022-11-15T00:36:40;5.25;98.41
70166;SHT30;57541;47.408;18.822;2022-11-15T00:37:12;5.25;98.50
70166;SHT30;57541;47.408;18.822;2022-11-15T00:37:43;5.19;98.45
70166;SHT30;57541;47.408;18.822;2022-11-15T00:38:15;5.23;98.48
70166;SHT30;57541;47.408;18.822;2022-11-15T00:38:46;5.26;98.38
70166;SHT30;57541;47.408;18.822;2022-11-15T00:39:18;5.26;98.70
70166;SHT30;57541;47.408;18.822;2022-11-15T00:39:49;5.22;98.48
70166;SHT30;57541;47.408;18.822;2022-11-15T00:40:21;5.25;98.53
70166;SHT30;57541;47.408;18.822;2022-11-15T00:40:53;5.29;98.56
70166;SHT30;57541;47.408;18.822;2022-11-15T00:41:24;5.25;98.27
70166;SHT30;57541;47.408;18.822;2022-11-15T00:41:56;5.19;98.01
70166;SHT30;57541;47.408;18.822;2022-11-15T00:42:27;5.19;98.27
70166;SHT30;57541;47.408;18.822;2022-11-15T00:42:59;5.25;98.30
70166;SHT30;57541;47.408;18.822;2022-11-15T00:43:31;5.23;98.35
70166;SHT30;57541;47.408;18.822;2022-11-15T00:44:03;5.28;98.38
70166;SHT30;57541;47.408;18.822;2022-11-15T00:44:35;5.20;98.12
70166;SHT30;57541;47.408;18.822;2022-11-15T00:45:07;5.20;98.26
70166;SHT30;57541;47.408;18.822;2022-11-15T00:45:39;5.18;98.19
70166;SHT30;57541;47.408;18.822;2022-11-15T00:46:10;5.18;98.28
70166;SHT30;57541;47.408;18.822;2022-11-15T00:46:42;5.15;98.37
70166;SHT30;57541;47.408;18.822;2022-11-15T00:47:14;5.09;98.39
70166;SHT30;57541;47.408;18.822;2022-11-15T00:47:45;5.12;98.34
70166;SHT30;57541;47.408;18.822;2022-11-15T00:48:17;5.16;98.61
70166;SHT30;57541;47.408;18.822;2022-11-15T00:48:49;5.07;98.51
70166;SHT30;57541;47.408;18.822;2022-11-15T00:49:20;4.93;98.78
70166;SHT30;57541;47.408;18.822;2022-11-15T00:49:52;4.95;98.79
70166;SHT30;57541;47.408;18.822;2022-11-15T00:50:23;4.92;98.68
70166;SHT30;57541;47.408;18.822;2022-11-15T00:50:55;4.92;98.78
70166;SHT30;57541;47.408;18.822;2022-11-15T00:51:27;5.02;98.98
70166;SHT30;57541;47.408;18.822;2022-11-15T00:51:58;4.95;98.65
70166;SHT30;57541;47.408;18.822;2022-11-15T00:52:30;4.95;98.78
70166;SHT30;57541;47.408;18.822;2022-11-15T00:53:01;4.85;98.33
70166;SHT30;57541;47.408;18.822;2022-11-15T00:53:33;4.87;98.74
70166;SHT30;57541;47.408;18.822;2022-11-15T00:54:05;4.89;98.83
70166;SHT30;57541;47.408;18.822;2022-11-15T00:54:37;4.85;98.52
70166;SHT30;57541;47.408;18.822;2022-11-15T00:55:13;4.87;98.71
70166;SHT30;57541;47.408;18.822;2022-11-15T00:55:46;4.79;98.42
70166;SHT30;57541;47.408;18.822;2022-11-15T00:56:18;4.81;98.79
70166;SHT30;57541;47.408;18.822;2022-11-15T00:56:49;4.82;98.71
70166;SHT30;57541;47.408;18.822;2022-11-15T00:57:21;4.93;98.72
70166;SHT30;57541;47.408;18.822;2022-11-15T00:57:52;4.92;98.62
70166;SHT30;57541;47.408;18.822;2022-11-15T00:58:24;4.99;98.82
70166;SHT30;57541;47.408;18.822;2022-11-15T00:58:55;5.02;98.41
70166;SHT30;57541;47.408;18.822;2022-11-15T00:59:27;4.95;98.13
70166;SHT30;57541;47.408;18.822;2022-11-15T00:59:58;4.93;98.31
70166;SHT30;57541;47.408;18.822;2022-11-15T01:00:30;4.88;98.18
70166;SHT30;57541;47.408;18.822;2022-11-15T01:01:06;4.93;98.37
70166;SHT30;57541;47.408;18.822;2022-11-15T01:01:38;4.91;98.28
70166;SHT30;57541;47.408;18.822;2022-11-15T01:02:10;4.85;98.08
70166;SHT30;57541;47.408;18.822;2022-11-15T01:02:41;4.84;98.08
70166;SHT30;57541;47.408;18.822;2022-11-15T01:03:13;4.84;98.41
70166;SHT30;57541;47.408;18.822;2022-11-15T01:03:44;4.85;98.59
70166;SHT30;57541;47.408;18.822;2022-11-15T01:04:16;4.87;98.40
70166;SHT30;57541;47.408;18.822;2022-11-15T01:04:48;4.87;98.42
70166;SHT30;57541;47.408;18.822;2022-11-15T01:05:20;4.75;98.33
70166;SHT30;57541;47.408;18.822;2022-11-15T01:05:51;4.82;98.56
70166;SHT30;57541;47.408;18.822;2022-11-15T01:06:23;4.82;98.41
70166;SHT30;57541;47.408;18.822;2022-11-15T01:06:54;4.85;98.53
70166;SHT30;57541;47.408;18.822;2022-11-15T01:07:26;4.87;98.76
70166;SHT30;57541;47.408;18.822;2022-11-15T01:07:58;4.89;98.54
70166;SHT30;57541;47.408;18.822;2022-11-15T01:08:29;4.84;98.25
70166;SHT30;57541;47.408;18.822;2022-11-15T01:09:01;4.74;98.12
70166;SHT30;57541;47.408;18.822;2022-11-15T01:09:33;4.78;98.77
70166;SHT30;57541;47.408;18.822;2022-11-15T01:10:04;4.82;98.72
70166;SHT30;57541;47.408;18.822;2022-11-15T01:10:36;4.81;98.54
70166;SHT30;57541;47.408;18.822;2022-11-15T01:11:10;4.78;98.49
70166;SHT30;57541;47.408;18.822;2022-11-15T01:11:42;4.72;98.38
70166;SHT30;57541;47.408;18.822;2022-11-15T01:12:14;4.75;98.37
70166;SHT30;57541;47.408;18.822;2022-11-15T01:12:45;4.62;98.32
70166;SHT30;57541;47.408;18.822;2022-11-15T01:13:17;4.64;98.66
70166;SHT30;57541;47.408;18.822;2022-11-15T01:13:48;4.75;98.84
70166;SHT30;57541;47.408;18.822;2022-11-15T01:14:20;4.72;98.80
70166;SHT30;57541;47.408;18.822;2022-11-15T01:14:55;4.68;98.67
70166;SHT30;57541;47.408;18.822;2022-11-15T01:15:27;4.72;98.92
70166;SHT30;57541;47.408;18.822;2022-11-15T01:16:05;4.77;99.01
70166;SHT30;57541;47.408;18.822;2022-11-15T01:16:36;4.72;98.67
70166;SHT30;57541;47.408;18.822;2022-11-15T01:17:08;4.71;98.74
70166;SHT30;57541;47.408;18.822;2022-11-15T01:17:39;4.72;98.57
70166;SHT30;57541;47.408;18.822;2022-11-15T01:18:11;4.67;98.52
70166;SHT30;57541;47.408;18.822;2022-11-15T01:18:44;4.67;98.60
70166;SHT30;57541;47.408;18.822;2022-11-15T01:19:16;4.64;98.64
70166;SHT30;57541;47.408;18.822;2022-11-15T01:19:48;4.62;98.51
70166;SHT30;57541;47.408;18.822;2022-11-15T01:20:20;4.68;98.70
70166;SHT30;57541;47.408;18.822;2022-11-15T01:20:51;4.75;98.95
70166;SHT30;57541;47.408;18.822;2022-11-15T01:21:23;4.79;98.68
70166;SHT30;57541;47.408;18.822;2022-11-15T01:21:54;4.77;98.63
70166;SHT30;57541;47.408;18.822;2022-11-15T01:22:26;4.75;98.35
70166;SHT30;57541;47.408;18.822;2022-11-15T01:22:57;4.74;98.52
70166;SHT30;57541;47.408;18.822;2022-11-15T01:23:29;4.74;98.54
70166;SHT30;57541;47.408;18.822;2022-11-15T01:24:01;4.78;98.93
70166;SHT30;57541;47.408;18.822;2022-11-15T01:24:33;4.79;98.61
70166;SHT30;57541;47.408;18.822;2022-11-15T01:25:04;4.88;98.66
70166;SHT30;57541;47.408;18.822;2022-11-15T01:25:37;4.93;98.50
70166;SHT30;57541;47.408;18.822;2022-11-15T01:26:11;5.01;98.27
70166;SHT30;57541;47.408;18.822;2022-11-15T01:26:43;5.01;98.09
70166;SHT30;57541;47.408;18.822;2022-11-15T01:27:14;4.93;97.62
70166;SHT30;57541;47.408;18.822;2022-11-15T01:27:46;4.88;97.86
70166;SHT30;57541;47.408;18.822;2022-11-15T01:28:17;4.87;98.14
70166;SHT30;57541;47.408;18.822;2022-11-15T01:28:49;4.92;98.33
70166;SHT30;57541;47.408;18.822;2022-11-15T01:29:21;4.84;97.90
70166;SHT30;57541;47.408;18.822;2022-11-15T01:29:52;4.87;98.09
70166;SHT30;57541;47.408;18.822;2022-11-15T01:30:24;4.77;97.99
70166;SHT30;57541;47.408;18.822;2022-11-15T01:30:58;4.78;98.26
70166;SHT30;57541;47.408;18.822;2022-11-15T01:31:30;4.74;98.38
70166;SHT30;57541;47.408;18.822;2022-11-15T01:32:01;4.82;98.57
70166;SHT30;57541;47.408;18.822;2022-11-15T01:32:33;4.81;98.52
70166;SHT30;57541;47.408;18.822;2022-11-15T01:33:05;4.74;98.39
70166;SHT30;57541;47.408;18.822;2022-11-15T01:33:36;4.81;98.70
70166;SHT30;57541;47.408;18.822;2022-11-15T01:34:08;4.82;98.32
70166;SHT30;57541;47.408;18.822;2022-11-15T01:34:39;4.91;98.37
70166;SHT30;57541;47.408;18.822;2022-11-15T01:35:11;4.92;98.21
70166;SHT30;57541;47.408;18.822;2022-11-15T01:35:42;4.95;98.10
70166;SHT30;57541;47.408;18.822;2022-11-15T01:36:19;4.96;98.07
70166;SHT30;57541;47.408;18.822;2022-11-15T01:36:53;4.96;97.92
70166;SHT30;57541;47.408;18.822;2022-11-15T01:37:24;5.04;98.02
70166;SHT30;57541;47.408;18.822;2022-11-15T01:37:56;5.01;97.82
70166;SHT30;57541;47.408;18.822;2022-11-15T01:38:27;4.98;97.91
70166;SHT30;57541;47.408;18.822;2022-11-15T01:38:59;4.93;98.04
70166;SHT30;57541;47.408;18.822;2022-11-15T01:39:30;4.95;98.28
70166;SHT30;57541;47.408;18.822;2022-11-15T01:40:02;4.89;98.03
70166;SHT30;57541;47.408;18.822;2022-11-15T01:40:34;4.92;98.07
70166;SHT30;57541;47.408;18.822;2022-11-15T01:41:06;4.88;98.16
70166;SHT30;57541;47.408;18.822;2022-11-15T01:41:43;4.78;98.19
70166;SHT30;57541;47.408;18.822;2022-11-15T01:42:15;4.77;98.56
70166;SHT30;57541;47.408;18.822;2022-11-15T01:42:47;4.81;98.40
70166;SHT30;57541;47.408;18.822;2022-11-15T01:43:33;4.82;98.41
70166;SHT30;57541;47.408;18.822;2022-11-15T01:45:05;4.95;98.11
70166;SHT30;57541;47.408;18.822;2022-11-15T01:45:37;5.05;98.05
70166;SHT30;57541;47.408;18.822;2022-11-15T01:46:43;4.95;97.79
70166;SHT30;57541;47.408;18.822;2022-11-15T01:47:23;4.98;97.81
70166;SHT30;57541;47.408;18.822;2022-11-15T01:47:56;5.01;97.50
70166;SHT30;57541;47.408;18.822;2022-11-15T01:48:32;5.12;97.51
70166;SHT30;57541;47.408;18.822;2022-11-15T01:49:14;5.05;97.35
70166;SHT30;57541;47.408;18.822;2022-11-15T01:50:07;4.91;97.49
70166;SHT30;57541;47.408;18.822;2022-11-15T01:50:39;4.81;97.89
70166;SHT30;57541;47.408;18.822;2022-11-15T01:51:13;4.75;97.99
70166;SHT30;57541;47.408;18.822;2022-11-15T01:51:47;4.70;98.12
70166;SHT30;57541;47.408;18.822;2022-11-15T01:52:20;4.75;98.16
70166;SHT30;57541;47.408;18.822;2022-11-15T01:52:53;4.68;98.37
70166;SHT30;57541;47.408;18.822;2022-11-15T01:53:25;4.64;98.30
70166;SHT30;57541;47.408;18.822;2022-11-15T01:54:00;4.71;98.61
70166;SHT30;57541;47.408;18.822;2022-11-15T01:54:33;4.75;98.43
70166;SHT30;57541;47.408;18.822;2022-11-15T01:55:12;4.78;98.20
70166;SHT30;57541;47.408;18.822;2022-11-15T01:55:45;4.88;98.38
70166;SHT30;57541;47.408;18.822;2022-11-15T01:56:19;4.93;98.26
70166;SHT30;57541;47.408;18.822;2022-11-15T01:56:58;4.92;97.85
70166;SHT30;57541;47.408;18.822;2022-11-15T01:57:31;4.96;98.03
70166;SHT30;57541;47.408;18.822;2022-11-15T01:58:04;4.92;97.93
70166;SHT30;57541;47.408;18.822;2022-11-15T01:58:37;4.95;98.08
70166;SHT30;57541;47.408;18.822;2022-11-15T01:59:11;4.93;97.93
70166;SHT30;57541;47.408;18.822;2022-11-15T01:59:44;5.04;98.06
70166;SHT30;57541;47.408;18.822;2022-11-15T02:01:10;4.91;98.53
70166;SHT30;57541;47.408;18.822;2022-11-15T02:01:42;4.95;98.29
70166;SHT30;57541;47.408;18.822;2022-11-15T02:02:14;4.93;98.20
70166;SHT30;57541;47.408;18.822;2022-11-15T02:02:46;4.95;98.11
70166;SHT30;57541;47.408;18.822;2022-11-15T02:03:18;4.96;97.95
70166;SHT30;57541;47.408;18.822;2022-11-15T02:03:58;4.92;97.94
70166;SHT30;57541;47.408;18.822;2022-11-15T02:04:37;4.93;98.00
70166;SHT30;57541;47.408;18.822;2022-11-15T02:05:11;4.88;97.79
70166;SHT30;57541;47.408;18.822;2022-11-15T02:05:43;4.96;97.99
70166;SHT30;57541;47.408;18.822;2022-11-15T02:06:15;4.98;97.75
70166;SHT30;57541;47.408;18.822;2022-11-15T02:06:48;4.98;97.76
70166;SHT30;57541;47.408;18.822;2022-11-15T02:07:21;4.93;97.67
70166;SHT30;57541;47.408;18.822;2022-11-15T02:07:53;4.84;97.74
70166;SHT30;57541;47.408;18.822;2022-11-15T02:08:25;4.81;98.12
70166;SHT30;57541;47.408;18.822;2022-11-15T02:08:57;4.85;98.13
70166;SHT30;57541;47.408;18.822;2022-11-15T02:09:30;4.85;98.10
70166;SHT30;57541;47.408;18.822;2022-11-15T02:10:07;4.85;97.92
70166;SHT30;57541;47.408;18.822;2022-11-15T02:10:39;4.85;98.15
70166;SHT30;57541;47.408;18.822;2022-11-15T02:11:11;4.82;98.34
70166;SHT30;57541;47.408;18.822;2022-11-15T02:11:43;4.87;98.40
70166;SHT30;57541;47.408;18.822;2022-11-15T02:12:18;4.82;98.25
70166;SHT30;57541;47.408;18.822;2022-11-15T02:12:51;4.81;98.53
70166;SHT30;57541;47.408;18.822;2022-11-15T02:13:23;4.77;98.45
70166;SHT30;57541;47.408;18.822;2022-11-15T02:13:56;4.75;98.29
70166;SHT30;57541;47.408;18.822;2022-11-15T02:14:29;4.78;98.50
70166;SHT30;57541;47.408;18.822;2022-11-15T02:15:04;4.78;98.27
70166;SHT30;57541;47.408;18.822;2022-11-15T02:15:40;4.74;98.35
70166;SHT30;57541;47.408;18.822;2022-11-15T02:16:27;4.79;98.44
70166;SHT30;57541;47.408;18.822;2022-11-15T02:18:15;4.93;98.32
70166;SHT30;57541;47.408;18.822;2022-11-15T02:20:35;4.98;98.02
70166;SHT30;57541;47.408;18.822;2022-11-15T02:25:03;4.89;98.34
70166;SHT30;57541;47.408;18.822;2022-11-15T02:25:49;4.87;98.60
70166;SHT30;57541;47.408;18.822;2022-11-15T02:29:09;4.78;98.73
70166;SHT30;57541;47.408;18.822;2022-11-15T02:31:14;4.95;98.53
70166;SHT30;57541;47.408;18.822;2022-11-15T02:31:55;4.93;98.17
70166;SHT30;57541;47.408;18.822;2022-11-15T02:32:45;4.85;98.19
70166;SHT30;57541;47.408;18.822;2022-11-15T02:34:58;4.98;98.18
70166;SHT30;57541;47.408;18.822;2022-11-15T02:36:38;5.01;98.12
70166;SHT30;57541;47.408;18.822;2022-11-15T02:38:41;4.89;98.26
70166;SHT30;57541;47.408;18.822;2022-11-15T02:39:28;4.88;98.28
70166;SHT30;57541;47.408;18.822;2022-11-15T02:40:09;4.91;98.31
70166;SHT30;57541;47.408;18.822;2022-11-15T02:41:32;4.92;97.87
70166;SHT30;57541;47.408;18.822;2022-11-15T02:42:17;4.95;97.81
70166;SHT30;57541;47.408;18.822;2022-11-15T02:43:11;5.01;98.05
70166;SHT30;57541;47.408;18.822;2022-11-15T02:44:30;5.05;97.95
70166;SHT30;57541;47.408;18.822;2022-11-15T02:45:04;4.96;97.68
70166;SHT30;57541;47.408;18.822;2022-11-15T02:45:40;4.92;97.91
70166;SHT30;57541;47.408;18.822;2022-11-15T02:46:40;4.84;98.17
70166;SHT30;57541;47.408;18.822;2022-11-15T02:47:30;4.92;98.29
70166;SHT30;57541;47.408;18.822;2022-11-15T02:48:04;4.87;98.19
70166;SHT30;57541;47.408;18.822;2022-11-15T02:48:37;4.95;98.31
70166;SHT30;57541;47.408;18.822;2022-11-15T02:49:11;4.91;97.98
70166;SHT30;57541;47.408;18.822;2022-11-15T02:49:47;4.99;97.93
70166;SHT30;57541;47.408;18.822;2022-11-15T02:50:21;5.01;97.85
70166;SHT30;57541;47.408;18.822;2022-11-15T02:50:54;5.02;97.78
70166;SHT30;57541;47.408;18.822;2022-11-15T02:51:26;5.04;97.68
70166;SHT30;57541;47.408;18.822;2022-11-15T02:51:58;4.99;97.89
70166;SHT30;57541;47.408;18.822;2022-11-15T02:52:29;5.05;97.85
70166;SHT30;57541;47.408;18.822;2022-11-15T02:53:01;5.04;97.81
70166;SHT30;57541;47.408;18.822;2022-11-15T02:53:34;5.07;97.99
70166;SHT30;57541;47.408;18.822;2022-11-15T02:54:05;4.99;97.65
70166;SHT30;57541;47.408;18.822;2022-11-15T02:54:37;4.92;97.83
70166;SHT30;57541;47.408;18.822;2022-11-15T02:55:58;4.87;98.07
70166;SHT30;57541;47.408;18.822;2022-11-15T02:56:30;4.82;98.14
70166;SHT30;57541;47.408;18.822;2022-11-15T02:57:07;4.87;98.22
70166;SHT30;57541;47.408;18.822;2022-11-15T02:59:40;4.81;98.35
70166;SHT30;57541;47.408;18.822;2022-11-15T03:00:17;4.82;98.70
70166;SHT30;57541;47.408;18.822;2022-11-15T03:01:09;4.82;98.42
70166;SHT30;57541;47.408;18.822;2022-11-15T03:02:28;4.74;98.59
70166;SHT30;57541;47.408;18.822;2022-11-15T03:04:41;4.79;98.35
70166;SHT30;57541;47.408;18.822;2022-11-15T03:06:20;4.87;98.57
70166;SHT30;57541;47.408;18.822;2022-11-15T03:07:22;4.89;98.35
70166;SHT30;57541;47.408;18.822;2022-11-15T03:09:33;4.91;98.35
70166;SHT30;57541;47.408;18.822;2022-11-15T03:10:09;4.92;98.17
70166;SHT30;57541;47.408;18.822;2022-11-15T03:11:03;5.01;98.25
70166;SHT30;57541;47.408;18.822;2022-11-15T03:11:42;4.99;97.98
70166;SHT30;57541;47.408;18.822;2022-11-15T03:12:22;4.98;98.08
70166;SHT30;57541;47.408;18.822;2022-11-15T03:12:57;4.95;97.95
70166;SHT30;57541;47.408;18.822;2022-11-15T03:13:38;4.99;98.06
70166;SHT30;57541;47.408;18.822;2022-11-15T03:14:18;4.89;98.03
70166;SHT30;57541;47.408;18.822;2022-11-15T03:15:03;4.85;98.22
70166;SHT30;57541;47.408;18.822;2022-11-15T03:18:13;4.93;97.91
70166;SHT30;57541;47.408;18.822;2022-11-15T03:18:54;4.95;98.03
70166;SHT30;57541;47.408;18.822;2022-11-15T03:19:34;4.92;97.98
70166;SHT30;57541;47.408;18.822;2022-11-15T03:20:11;4.98;98.05
70166;SHT30;57541;47.408;18.822;2022-11-15T03:20:46;4.92;97.86
70166;SHT30;57541;47.408;18.822;2022-11-15T03:21:19;4.99;98.06
70166;SHT30;57541;47.408;18.822;2022-11-15T03:21:53;4.91;98.17
70166;SHT30;57541;47.408;18.822;2022-11-15T03:22:29;4.85;98.32
70166;SHT30;57541;47.408;18.822;2022-11-15T03:23:05;4.93;98.40
70166;SHT30;57541;47.408;18.822;2022-11-15T03:23:38;4.93;98.07
70166;SHT30;57541;47.408;18.822;2022-11-15T03:24:12;4.84;98.02
70166;SHT30;57541;47.408;18.822;2022-11-15T03:24:50;4.88;98.46
70166;SHT30;57541;47.408;18.822;2022-11-15T03:25:25;4.91;98.07
70166;SHT30;57541;47.408;18.822;2022-11-15T03:25:59;4.82;98.15
70166;SHT30;57541;47.408;18.822;2022-11-15T03:26:33;4.79;98.61
70166;SHT30;57541;47.408;18.822;2022-11-15T03:27:07;4.75;98.38
70166;SHT30;57541;47.408;18.822;2022-11-15T03:27:43;4.74;98.41
70166;SHT30;57541;47.408;18.822;2022-11-15T03:28:23;4.74;98.47
70166;SHT30;57541;47.408;18.822;2022-11-15T03:29:07;4.74;98.50
70166;SHT30;57541;47.408;18.822;2022-11-15T03:29:45;4.74;98.56
70166;SHT30;57541;47.408;18.822;2022-11-15T03:30:18;4.79;98.47
70166;SHT30;57541;47.408;18.822;2022-11-15T03:30:52;4.77;98.26
70166;SHT30;57541;47.408;18.822;2022-11-15T03:31:28;4.82;98.33
70166;SHT30;57541;47.408;18.822;2022-11-15T03:32:27;4.84;98.21
70166;SHT30;57541;47.408;18.822;2022-11-15T03:33:01;4.79;98.19
70166;SHT30;57541;47.408;18.822;2022-11-15T03:33:34;4.81;98.20
70166;SHT30;57541;47.408;18.822;2022-11-15T03:34:07;4.72;98.12
70166;SHT30;57541;47.408;18.822;2022-11-15T03:34:48;4.72;98.21
70166;SHT30;57541;47.408;18.822;2022-11-15T03:35:22;4.67;98.38
70166;SHT30;57541;47.408;18.822;2022-11-15T03:35:55;4.67;98.42
70166;SHT30;57541;47.408;18.822;2022-11-15T03:36:27;4.65;98.50
70166;SHT30;57541;47.408;18.822;2022-11-15T03:36:59;4.68;98.58
70166;SHT30;57541;47.408;18.822;2022-11-15T03:37:37;4.79;98.58
70166;SHT30;57541;47.408;18.822;2022-11-15T03:38:26;4.74;98.35
70166;SHT30;57541;47.408;18.822;2022-11-15T03:39:05;4.70;98.43
70166;SHT30;57541;47.408;18.822;2022-11-15T03:39:37;4.75;98.35
70166;SHT30;57541;47.408;18.822;2022-11-15T03:40:09;4.79;98.23
70166;SHT30;57541;47.408;18.822;2022-11-15T03:41:05;4.67;98.02
70166;SHT30;57541;47.408;18.822;2022-11-15T03:41:43;4.50;98.59
70166;SHT30;57541;47.408;18.822;2022-11-15T03:42:27;4.51;98.63
70166;SHT30;57541;47.408;18.822;2022-11-15T03:43:10;4.50;99.02
70166;SHT30;57541;47.408;18.822;2022-11-15T03:43:53;4.51;98.75
70166;SHT30;57541;47.408;18.822;2022-11-15T03:45:39;4.43;98.51
70166;SHT30;57541;47.408;18.822;2022-11-15T03:46:24;4.50;98.73
70166;SHT30;57541;47.408;18.822;2022-11-15T03:47:06;4.58;98.54
70166;SHT30;57541;47.408;18.822;2022-11-15T03:47:45;4.61;98.37
70166;SHT30;57541;47.408;18.822;2022-11-15T03:48:24;4.65;98.36
70166;SHT30;57541;47.408;18.822;2022-11-15T03:49:06;4.70;98.50
70166;SHT30;57541;47.408;18.822;2022-11-15T03:49:43;4.72;98.12
70166;SHT30;57541;47.408;18.822;2022-11-15T03:50:19;4.62;98.08
70166;SHT30;57541;47.408;18.822;2022-11-15T03:50:51;4.72;98.25
70166;SHT30;57541;47.408;18.822;2022-11-15T03:51:23;4.74;98.21
70166;SHT30;57541;47.408;18.822;2022-11-15T03:51:57;4.78;98.01
70166;SHT30;57541;47.408;18.822;2022-11-15T03:52:32;4.77;98.00
70166;SHT30;57541;47.408;18.822;2022-11-15T03:53:05;4.77;97.99
70166;SHT30;57541;47.408;18.822;2022-11-15T03:53:36;4.68;97.95
70166;SHT30;57541;47.408;18.822;2022-11-15T03:54:08;4.77;98.19
70166;SHT30;57541;47.408;18.822;2022-11-15T03:54:54;4.77;98.13
70166;SHT30;57541;47.408;18.822;2022-11-15T03:55:26;4.79;98.16
70166;SHT30;57541;47.408;18.822;2022-11-15T03:55:58;4.85;98.24
70166;SHT30;57541;47.408;18.822;2022-11-15T03:56:30;4.91;98.38
70166;SHT30;57541;47.408;18.822;2022-11-15T03:57:01;4.78;98.07
70166;SHT30;57541;47.408;18.822;2022-11-15T03:57:33;4.74;98.36
70166;SHT30;57541;47.408;18.822;2022-11-15T03:58:05;4.85;98.56
70166;SHT30;57541;47.408;18.822;2022-11-15T03:58:36;4.87;98.39
70166;SHT30;57541;47.408;18.822;2022-11-15T03:59:08;4.88;98.45
70166;SHT30;57541;47.408;18.822;2022-11-15T03:59:40;4.88;98.18
70166;SHT30;57541;47.408;18.822;2022-11-15T04:00:11;4.96;98.15
70166;SHT30;57541;47.408;18.822;2022-11-15T04:00:43;4.93;98.07
70166;SHT30;57541;47.408;18.822;2022-11-15T04:01:15;4.82;97.80
70166;SHT30;57541;47.408;18.822;2022-11-15T04:01:47;4.84;97.90
70166;SHT30;57541;47.408;18.822;2022-11-15T04:02:18;4.87;98.16
70166;SHT30;57541;47.408;18.822;2022-11-15T04:02:50;4.84;98.09
70166;SHT30;57541;47.408;18.822;2022-11-15T04:03:21;4.82;98.08
70166;SHT30;57541;47.408;18.822;2022-11-15T04:03:53;4.88;97.92
70166;SHT30;57541;47.408;18.822;2022-11-15T04:04:25;4.72;97.88
70166;SHT30;57541;47.408;18.822;2022-11-15T04:04:56;4.65;98.14
70166;SHT30;57541;47.408;18.822;2022-11-15T04:05:28;4.71;98.38
70166;SHT30;57541;47.408;18.822;2022-11-15T04:05:59;4.72;98.49
70166;SHT30;57541;47.408;18.822;2022-11-15T04:06:31;4.75;98.27